sensor_id;sensor_type;location;lat;lon;timestamp;temperature;humidity
8832;DHT22;4452;50.756;4.472;2023-04-25T00:00:12;7.70;99.90
8832;DHT22;4452;50.756;4.472;2023-04-25T00:02:37;7.80;99.90
8832;DHT22;4452;50.756;4.472;2023-04-25T00:05:03;7.80;99.90
8832;DHT22;4452;50.756;4.472;2023-04-25T00:07:30;7.80;99.90
8832;DHT22;4452;50.756;4.472;2023-04-25T00:09:56;7.80;99.90
8832;DHT22;4452;50.756;4.472;2023-04-25T00:12:22;7.90;99.90
8832;DHT22;4452;50.756;4.472;2023-04-25T00:14:48;7.80;99.90
8832;DHT22;4452;50.756;4.472;2023-04-25T00:17:15;7.90;99.90
8832;DHT22;4452;50.756;4.472;2023-04-25T00:19:42;7.80;99.90
8832;DHT22;4452;50.756;4.472;2023-04-25T00:22:10;7.80;99.90
8832;DHT22;4452;50.756;4.472;2023-04-25T00:24:36;7.70;99.90
8832;DHT22;4452;50.756;4.472;2023-04-25T00:27:01;7.70;99.90
8832;DHT22;4452;50.756;4.472;2023-04-25T00:29:27;7.70;99.90
8832;DHT22;4452;50.756;4.472;2023-04-25T00:31:53;7.70;99.90
8832;DHT22;4452;50.756;4.472;2023-04-25T00:34:18;7.70;99.90
8832;DHT22;4452;50.756;4.472;2023-04-25T00:36:44;7.60;99.90
8832;DHT22;4452;50.756;4.472;2023-04-25T00:39:10;7.60;99.90
8832;DHT22;4452;50.756;4.472;2023-04-25T00:41:37;7.40;99.90
8832;DHT22;4452;50.756;4.472;2023-04-25T00:44:03;7.40;99.90
8832;DHT22;4452;50.756;4.472;2023-04-25T00:46:30;7.30;99.90
8832;DHT22;4452;50.756;4.472;2023-04-25T00:48:56;7.30;99.90
8832;DHT22;4452;50.756;4.472;2023-04-25T00:51:22;7.30;99.90
8832;DHT22;4452;50.756;4.472;2023-04-25T00:53:49;7.20;99.90
8832;DHT22;4452;50.756;4.472;2023-04-25T00:56:16;7.20;99.90
8832;DHT22;4452;50.756;4.472;2023-04-25T00:58:42;7.20;99.90
8832;DHT22;4452;50.756;4.472;2023-04-25T01:01:08;7.20;99.90
8832;DHT22;4452;50.756;4.472;2023-04-25T01:03:38;7.10;99.90
8832;DHT22;4452;50.756;4.472;2023-04-25T01:06:10;7.10;99.90
8832;DHT22;4452;50.756;4.472;2023-04-25T01:08:38;7.10;99.90
8832;DHT22;4452;50.756;4.472;2023-04-25T01:11:04;7.00;99.90
8832;DHT22;4452;50.756;4.472;2023-04-25T01:13:30;7.00;99.90
8832;DHT22;4452;50.756;4.472;2023-04-25T01:15:58;6.90;99.90
8832;DHT22;4452;50.756;4.472;2023-04-25T01:18:24;6.90;99.90
8832;DHT22;4452;50.756;4.472;2023-04-25T01:20:51;6.80;99.90
8832;DHT22;4452;50.756;4.472;2023-04-25T01:23:18;6.90;99.90
8832;DHT22;4452;50.756;4.472;2023-04-25T01:25:45;6.80;99.90
8832;DHT22;4452;50.756;4.472;2023-04-25T01:28:11;6.80;99.90
8832;DHT22;4452;50.756;4.472;2023-04-25T01:30:37;6.80;99.90
8832;DHT22;4452;50.756;4.472;2023-04-25T01:33:04;6.80;99.90
8832;DHT22;4452;50.756;4.472;2023-04-25T01:35:31;6.70;99.90
8832;DHT22;4452;50.756;4.472;2023-04-25T01:37:57;6.80;99.90
8832;DHT22;4452;50.756;4.472;2023-04-25T01:40:24;6.70;99.90
8832;DHT22;4452;50.756;4.472;2023-04-25T01:42:50;6.70;99.90
8832;DHT22;4452;50.756;4.472;2023-04-25T01:45:16;6.70;99.90
8832;DHT22;4452;50.756;4.472;2023-04-25T01:47:42;6.70;99.90
8832;DHT22;4452;50.756;4.472;2023-04-25T01:50:09;6.80;99.90
8832;DHT22;4452;50.756;4.472;2023-04-25T01:52:35;6.70;99.90
8832;DHT22;4452;50.756;4.472;2023-04-25T01:55:05;6.70;99.90
8832;DHT22;4452;50.756;4.472;2023-04-25T01:57:31;6.70;99.90
8832;DHT22;4452;50.756;4.472;2023-04-25T02:00:02;6.70;99.90
8832;DHT22;4452;50.756;4.472;2023-04-25T02:02:28;6.70;99.90
8832;DHT22;4452;50.756;4.472;2023-04-25T02:04:54;6.70;99.90
8832;DHT22;4452;50.756;4.472;2023-04-25T02:07:21;6.70;99.90
8832;DHT22;4452;50.756;4.472;2023-04-25T02:09:46;6.70;99.90
8832;DHT22;4452;50.756;4.472;2023-04-25T02:12:12;6.70;99.90
8832;DHT22;4452;50.756;4.472;2023-04-25T02:14:37;6.80;99.90
8832;DHT22;4452;50.756;4.472;2023-04-25T02:17:03;6.70;99.90
8832;DHT22;4452;50.756;4.472;2023-04-25T02:19:29;6.80;99.90
8832;DHT22;4452;50.756;4.472;2023-04-25T02:21:55;6.70;99.90
8832;DHT22;4452;50.756;4.472;2023-04-25T02:24:22;6.70;99.90
8832;DHT22;4452;50.756;4.472;2023-04-25T02:26:48;6.70;99.90
8832;DHT22;4452;50.756;4.472;2023-04-25T02:29:15;6.70;99.90
8832;DHT22;4452;50.756;4.472;2023-04-25T02:31:41;6.70;99.90
8832;DHT22;4452;50.756;4.472;2023-04-25T02:34:06;6.60;99.90
8832;DHT22;4452;50.756;4.472;2023-04-25T02:36:33;6.70;99.90
8832;DHT22;4452;50.756;4.472;2023-04-25T02:39:01;6.60;99.90
8832;DHT22;4452;50.756;4.472;2023-04-25T02:41:29;6.50;99.90
8832;DHT22;4452;50.756;4.472;2023-04-25T02:43:55;6.50;99.90
8832;DHT22;4452;50.756;4.472;2023-04-25T02:46:20;6.50;99.90
8832;DHT22;4452;50.756;4.472;2023-04-25T02:48:46;6.40;99.90
8832;DHT22;4452;50.756;4.472;2023-04-25T02:51:12;6.40;99.90
8832;DHT22;4452;50.756;4.472;2023-04-25T02:53:37;6.40;99.90
8832;DHT22;4452;50.756;4.472;2023-04-25T02:56:03;6.40;99.90
8832;DHT22;4452;50.756;4.472;2023-04-25T02:58:29;6.40;99.90
8832;DHT22;4452;50.756;4.472;2023-04-25T03:00:55;6.40;99.90
8832;DHT22;4452;50.756;4.472;2023-04-25T03:03:20;6.40;99.90
8832;DHT22;4452;50.756;4.472;2023-04-25T03:05:50;6.30;99.90
8832;DHT22;4452;50.756;4.472;2023-04-25T03:08:16;6.30;99.90
8832;DHT22;4452;50.756;4.472;2023-04-25T03:10:42;6.30;99.90
8832;DHT22;4452;50.756;4.472;2023-04-25T03:13:07;6.30;99.90
8832;DHT22;4452;50.756;4.472;2023-04-25T03:15:34;6.30;99.90
8832;DHT22;4452;50.756;4.472;2023-04-25T03:18:00;6.30;99.90
8832;DHT22;4452;50.756;4.472;2023-04-25T03:20:25;6.40;99.90
8832;DHT22;4452;50.756;4.472;2023-04-25T03:22:51;6.40;99.90
8832;DHT22;4452;50.756;4.472;2023-04-25T03:25:16;6.30;99.90
8832;DHT22;4452;50.756;4.472;2023-04-25T03:27:42;6.30;99.90
8832;DHT22;4452;50.756;4.472;2023-04-25T03:30:08;6.30;99.90
8832;DHT22;4452;50.756;4.472;2023-04-25T03:32:34;6.40;99.90
8832;DHT22;4452;50.756;4.472;2023-04-25T03:35:00;6.40;99.90
8832;DHT22;4452;50.756;4.472;2023-04-25T03:37:26;6.50;99.90
8832;DHT22;4452;50.756;4.472;2023-04-25T03:39:52;6.50;99.90
8832;DHT22;4452;50.756;4.472;2023-04-25T03:42:17;6.50;99.90
8832;DHT22;4452;50.756;4.472;2023-04-25T03:44:43;6.50;99.90
8832;DHT22;4452;50.756;4.472;2023-04-25T03:47:09;6.40;99.90
8832;DHT22;4452;50.756;4.472;2023-04-25T03:49:35;6.30;99.90
8832;DHT22;4452;50.756;4.472;2023-04-25T03:52:02;6.30;99.90
8832;DHT22;4452;50.756;4.472;2023-04-25T03:54:27;6.40;99.90
8832;DHT22;4452;50.756;4.472;2023-04-25T03:56:53;6.40;99.90
8832;DHT22;4452;50.756;4.472;2023-04-25T03:59:19;6.40;99.90
8832;DHT22;4452;50.756;4.472;2023-04-25T04:01:44;6.40;99.90
8832;DHT22;4452;50.756;4.472;2023-04-25T04:04:10;6.40;99.90
8832;DHT22;4452;50.756;4.472;2023-04-25T04:06:36;6.40;99.90
8832;DHT22;4452;50.756;4.472;2023-04-25T04:09:02;6.40;99.90
8832;DHT22;4452;50.756;4.472;2023-04-25T04:11:28;6.50;99.90
8832;DHT22;4452;50.756;4.472;2023-04-25T04:13:54;6.50;99.90
8832;DHT22;4452;50.756;4.472;2023-04-25T04:16:20;6.40;99.90
8832;DHT22;4452;50.756;4.472;2023-04-25T04:18:46;6.40;99.90
8832;DHT22;4452;50.756;4.472;2023-04-25T04:21:11;6.30;99.90
8832;DHT22;4452;50.756;4.472;2023-04-25T04:23:37;6.30;99.90
8832;DHT22;4452;50.756;4.472;2023-04-25T04:26:03;6.20;99.90
8832;DHT22;4452;50.756;4.472;2023-04-25T04:28:29;6.10;99.90
8832;DHT22;4452;50.756;4.472;2023-04-25T04:30:55;6.10;99.90
8832;DHT22;4452;50.756;4.472;2023-04-25T04:33:21;6.00;99.90
8832;DHT22;4452;50.756;4.472;2023-04-25T04:35:46;6.00;99.90
8832;DHT22;4452;50.756;4.472;2023-04-25T04:38:13;6.00;99.90
8832;DHT22;4452;50.756;4.472;2023-04-25T04:40:41;6.00;99.90
8832;DHT22;4452;50.756;4.472;2023-04-25T04:43:09;6.00;99.90
8832;DHT22;4452;50.756;4.472;2023-04-25T04:45:35;6.00;99.90
8832;DHT22;4452;50.756;4.472;2023-04-25T04:48:02;6.00;99.90
8832;DHT22;4452;50.756;4.472;2023-04-25T04:50:28;6.00;99.90
8832;DHT22;4452;50.756;4.472;2023-04-25T04:52:53;6.00;99.90
8832;DHT22;4452;50.756;4.472;2023-04-25T04:55:20;6.00;99.90
8832;DHT22;4452;50.756;4.472;2023-04-25T04:57:46;6.00;99.90
8832;DHT22;4452;50.756;4.472;2023-04-25T05:00:12;6.00;99.90
8832;DHT22;4452;50.756;4.472;2023-04-25T05:02:38;6.00;99.90
8832;DHT22;4452;50.756;4.472;2023-04-25T05:05:05;6.00;99.90
8832;DHT22;4452;50.756;4.472;2023-04-25T05:07:31;6.00;99.90
8832;DHT22;4452;50.756;4.472;2023-04-25T05:09:56;5.90;99.90
8832;DHT22;4452;50.756;4.472;2023-04-25T05:12:22;6.00;99.90
8832;DHT22;4452;50.756;4.472;2023-04-25T05:14:48;6.00;99.90
8832;DHT22;4452;50.756;4.472;2023-04-25T05:17:13;6.10;99.90
8832;DHT22;4452;50.756;4.472;2023-04-25T05:19:39;6.00;99.90
8832;DHT22;4452;50.756;4.472;2023-04-25T05:22:05;6.00;99.90
8832;DHT22;4452;50.756;4.472;2023-04-25T05:24:31;6.00;99.90
8832;DHT22;4452;50.756;4.472;2023-04-25T05:26:57;6.00;99.90
8832;DHT22;4452;50.756;4.472;2023-04-25T05:29:22;6.00;99.90
8832;DHT22;4452;50.756;4.472;2023-04-25T05:31:48;6.00;99.90
8832;DHT22;4452;50.756;4.472;2023-04-25T05:34:14;5.90;99.90
8832;DHT22;4452;50.756;4.472;2023-04-25T05:36:40;5.80;99.90
8832;DHT22;4452;50.756;4.472;2023-04-25T05:39:06;5.90;99.90
8832;DHT22;4452;50.756;4.472;2023-04-25T05:41:32;5.90;99.90
8832;DHT22;4452;50.756;4.472;2023-04-25T05:43:58;5.90;99.90
8832;DHT22;4452;50.756;4.472;2023-04-25T05:46:23;5.70;99.90
8832;DHT22;4452;50.756;4.472;2023-04-25T05:48:49;5.80;99.90
8832;DHT22;4452;50.756;4.472;2023-04-25T05:51:15;5.70;99.90
8832;DHT22;4452;50.756;4.472;2023-04-25T05:53:42;5.70;99.90
8832;DHT22;4452;50.756;4.472;2023-04-25T05:56:08;5.70;99.90
8832;DHT22;4452;50.756;4.472;2023-04-25T05:58:34;5.70;99.90
8832;DHT22;4452;50.756;4.472;2023-04-25T06:01:00;5.70;99.90
8832;DHT22;4452;50.756;4.472;2023-04-25T06:03:25;5.70;99.90
8832;DHT22;4452;50.756;4.472;2023-04-25T06:05:51;5.70;99.90
8832;DHT22;4452;50.756;4.472;2023-04-25T06:08:17;5.70;99.90
8832;DHT22;4452;50.756;4.472;2023-04-25T06:10:42;5.80;99.90
8832;DHT22;4452;50.756;4.472;2023-04-25T06:13:08;5.90;99.90
8832;DHT22;4452;50.756;4.472;2023-04-25T06:15:34;5.90;99.90
8832;DHT22;4452;50.756;4.472;2023-04-25T06:18:00;5.90;99.90
8832;DHT22;4452;50.756;4.472;2023-04-25T06:20:26;6.00;99.90
8832;DHT22;4452;50.756;4.472;2023-04-25T06:22:51;6.00;99.90
8832;DHT22;4452;50.756;4.472;2023-04-25T06:25:18;6.00;99.90
8832;DHT22;4452;50.756;4.472;2023-04-25T06:27:43;6.10;99.90
8832;DHT22;4452;50.756;4.472;2023-04-25T06:30:09;6.30;99.90
8832;DHT22;4452;50.756;4.472;2023-04-25T06:32:37;6.40;99.90
8832;DHT22;4452;50.756;4.472;2023-04-25T06:35:03;6.40;99.90
8832;DHT22;4452;50.756;4.472;2023-04-25T06:37:29;6.40;99.90
8832;DHT22;4452;50.756;4.472;2023-04-25T06:39:55;6.50;99.90
8832;DHT22;4452;50.756;4.472;2023-04-25T06:42:21;6.50;99.90
8832;DHT22;4452;50.756;4.472;2023-04-25T06:44:47;6.50;99.90
8832;DHT22;4452;50.756;4.472;2023-04-25T06:47:12;6.60;99.90
8832;DHT22;4452;50.756;4.472;2023-04-25T06:49:38;6.60;99.90
8832;DHT22;4452;50.756;4.472;2023-04-25T06:52:04;6.70;99.90
8832;DHT22;4452;50.756;4.472;2023-04-25T06:54:29;6.80;99.90
8832;DHT22;4452;50.756;4.472;2023-04-25T06:56:55;6.80;99.90
8832;DHT22;4452;50.756;4.472;2023-04-25T06:59:21;6.90;99.90
8832;DHT22;4452;50.756;4.472;2023-04-25T07:01:47;7.00;99.90
8832;DHT22;4452;50.756;4.472;2023-04-25T07:04:13;7.20;99.90
8832;DHT22;4452;50.756;4.472;2023-04-25T07:06:38;7.40;99.90
8832;DHT22;4452;50.756;4.472;2023-04-25T07:09:08;7.30;99.90
8832;DHT22;4452;50.756;4.472;2023-04-25T07:11:35;7.30;99.90
8832;DHT22;4452;50.756;4.472;2023-04-25T07:14:01;7.30;99.90
8832;DHT22;4452;50.756;4.472;2023-04-25T07:16:27;7.40;99.90
8832;DHT22;4452;50.756;4.472;2023-04-25T07:18:53;7.30;99.90
8832;DHT22;4452;50.756;4.472;2023-04-25T07:21:18;7.40;99.90
8832;DHT22;4452;50.756;4.472;2023-04-25T07:23:44;7.40;99.90
8832;DHT22;4452;50.756;4.472;2023-04-25T07:26:10;7.60;99.90
8832;DHT22;4452;50.756;4.472;2023-04-25T07:28:36;7.60;99.90
8832;DHT22;4452;50.756;4.472;2023-04-25T07:31:02;7.70;99.90
8832;DHT22;4452;50.756;4.472;2023-04-25T07:33:28;7.60;99.90
8832;DHT22;4452;50.756;4.472;2023-04-25T07:35:54;7.60;99.90
8832;DHT22;4452;50.756;4.472;2023-04-25T07:38:21;7.70;99.90
8832;DHT22;4452;50.756;4.472;2023-04-25T07:40:51;7.70;99.90
8832;DHT22;4452;50.756;4.472;2023-04-25T07:43:17;7.70;99.90
8832;DHT22;4452;50.756;4.472;2023-04-25T07:45:44;7.50;99.90
8832;DHT22;4452;50.756;4.472;2023-04-25T07:48:11;7.50;99.90
8832;DHT22;4452;50.756;4.472;2023-04-25T07:50:36;7.60;99.90
8832;DHT22;4452;50.756;4.472;2023-04-25T07:53:02;7.70;99.90
8832;DHT22;4452;50.756;4.472;2023-04-25T07:55:28;7.90;99.90
8832;DHT22;4452;50.756;4.472;2023-04-25T07:57:55;8.20;99.90
8832;DHT22;4452;50.756;4.472;2023-04-25T08:00:21;8.40;99.90
8832;DHT22;4452;50.756;4.472;2023-04-25T08:02:46;8.40;99.90
8832;DHT22;4452;50.756;4.472;2023-04-25T08:05:12;8.50;99.90
8832;DHT22;4452;50.756;4.472;2023-04-25T08:07:40;8.30;99.90
8832;DHT22;4452;50.756;4.472;2023-04-25T08:10:07;8.60;99.90
8832;DHT22;4452;50.756;4.472;2023-04-25T08:12:33;8.40;99.90
8832;DHT22;4452;50.756;4.472;2023-04-25T08:14:59;8.50;99.90
8832;DHT22;4452;50.756;4.472;2023-04-25T08:17:25;8.60;99.90
8832;DHT22;4452;50.756;4.472;2023-04-25T08:19:50;8.70;99.90
8832;DHT22;4452;50.756;4.472;2023-04-25T08:22:16;8.90;99.90
8832;DHT22;4452;50.756;4.472;2023-04-25T08:24:42;8.80;99.90
8832;DHT22;4452;50.756;4.472;2023-04-25T08:27:07;8.80;99.90
8832;DHT22;4452;50.756;4.472;2023-04-25T08:29:34;9.10;99.90
8832;DHT22;4452;50.756;4.472;2023-04-25T08:32:00;8.70;99.90
8832;DHT22;4452;50.756;4.472;2023-04-25T08:34:26;8.80;99.90
8832;DHT22;4452;50.756;4.472;2023-04-25T08:36:52;8.90;99.90
8832;DHT22;4452;50.756;4.472;2023-04-25T08:39:18;8.80;99.90
8832;DHT22;4452;50.756;4.472;2023-04-25T08:41:44;9.10;99.90
8832;DHT22;4452;50.756;4.472;2023-04-25T08:44:11;9.30;99.90
8832;DHT22;4452;50.756;4.472;2023-04-25T08:46:40;9.20;99.90
8832;DHT22;4452;50.756;4.472;2023-04-25T08:49:07;9.20;99.90
8832;DHT22;4452;50.756;4.472;2023-04-25T08:51:36;9.20;99.90
8832;DHT22;4452;50.756;4.472;2023-04-25T08:54:10;9.20;99.90
8832;DHT22;4452;50.756;4.472;2023-04-25T08:56:38;9.00;99.90
8832;DHT22;4452;50.756;4.472;2023-04-25T08:59:04;9.20;99.90
8832;DHT22;4452;50.756;4.472;2023-04-25T09:01:36;9.20;99.90
8832;DHT22;4452;50.756;4.472;2023-04-25T09:04:05;9.20;99.90
8832;DHT22;4452;50.756;4.472;2023-04-25T09:06:31;9.30;99.90
8832;DHT22;4452;50.756;4.472;2023-04-25T09:09:05;9.20;99.90
8832;DHT22;4452;50.756;4.472;2023-04-25T09:11:32;9.30;99.90
8832;DHT22;4452;50.756;4.472;2023-04-25T09:14:18;9.30;99.90
8832;DHT22;4452;50.756;4.472;2023-04-25T09:19:31;10.00;99.90
8832;DHT22;4452;50.756;4.472;2023-04-25T09:21:59;10.30;99.90
8832;DHT22;4452;50.756;4.472;2023-04-25T09:26:57;10.20;99.90
8832;DHT22;4452;50.756;4.472;2023-04-25T09:29:33;10.10;99.90
8832;DHT22;4452;50.756;4.472;2023-04-25T09:32:26;9.40;99.90
8832;DHT22;4452;50.756;4.472;2023-04-25T09:34:56;9.40;99.90
8832;DHT22;4452;50.756;4.472;2023-04-25T09:37:27;9.30;99.90
8832;DHT22;4452;50.756;4.472;2023-04-25T09:39:59;9.20;99.90
8832;DHT22;4452;50.756;4.472;2023-04-25T09:42:28;9.40;99.90
8832;DHT22;4452;50.756;4.472;2023-04-25T09:44:57;9.70;99.90
8832;DHT22;4452;50.756;4.472;2023-04-25T09:47:25;9.80;99.90
8832;DHT22;4452;50.756;4.472;2023-04-25T09:49:53;10.00;99.90
8832;DHT22;4452;50.756;4.472;2023-04-25T09:52:23;9.80;99.90
8832;DHT22;4452;50.756;4.472;2023-04-25T09:54:50;10.00;99.90
8832;DHT22;4452;50.756;4.472;2023-04-25T09:57:23;9.90;99.90
8832;DHT22;4452;50.756;4.472;2023-04-25T09:59:50;10.00;99.90
8832;DHT22;4452;50.756;4.472;2023-04-25T10:02:18;9.90;99.90
8832;DHT22;4452;50.756;4.472;2023-04-25T10:04:48;9.90;99.90
8832;DHT22;4452;50.756;4.472;2023-04-25T10:07:14;9.60;99.90
8832;DHT22;4452;50.756;4.472;2023-04-25T10:09:40;9.40;99.90
8832;DHT22;4452;50.756;4.472;2023-04-25T10:12:07;9.50;99.90
8832;DHT22;4452;50.756;4.472;2023-04-25T10:14:34;9.80;99.90
8832;DHT22;4452;50.756;4.472;2023-04-25T10:17:00;9.70;99.90
8832;DHT22;4452;50.756;4.472;2023-04-25T10:19:27;9.60;99.90
8832;DHT22;4452;50.756;4.472;2023-04-25T10:22:12;9.40;99.90
8832;DHT22;4452;50.756;4.472;2023-04-25T10:24:40;9.80;99.90
8832;DHT22;4452;50.756;4.472;2023-04-25T10:27:07;9.80;99.90
8832;DHT22;4452;50.756;4.472;2023-04-25T10:29:33;10.00;99.90
8832;DHT22;4452;50.756;4.472;2023-04-25T10:32:00;10.70;99.90
8832;DHT22;4452;50.756;4.472;2023-04-25T10:34:40;11.10;99.90
8832;DHT22;4452;50.756;4.472;2023-04-25T10:37:11;11.00;99.90
8832;DHT22;4452;50.756;4.472;2023-04-25T10:39:41;10.30;99.90
8832;DHT22;4452;50.756;4.472;2023-04-25T10:42:08;9.90;99.90
8832;DHT22;4452;50.756;4.472;2023-04-25T10:44:34;9.70;99.90
8832;DHT22;4452;50.756;4.472;2023-04-25T10:47:01;9.50;99.90
8832;DHT22;4452;50.756;4.472;2023-04-25T10:49:41;9.50;99.90
8832;DHT22;4452;50.756;4.472;2023-04-25T10:54:47;9.90;99.90
8832;DHT22;4452;50.756;4.472;2023-04-25T10:57:29;10.80;99.90
8832;DHT22;4452;50.756;4.472;2023-04-25T11:02:30;11.40;99.90
8832;DHT22;4452;50.756;4.472;2023-04-25T11:04:56;11.40;99.90
8832;DHT22;4452;50.756;4.472;2023-04-25T11:09:49;10.80;99.90
8832;DHT22;4452;50.756;4.472;2023-04-25T11:12:15;10.60;99.90
8832;DHT22;4452;50.756;4.472;2023-04-25T11:14:41;10.50;99.90
8832;DHT22;4452;50.756;4.472;2023-04-25T11:17:07;10.20;99.90
8832;DHT22;4452;50.756;4.472;2023-04-25T11:19:33;10.40;99.90
8832;DHT22;4452;50.756;4.472;2023-04-25T11:22:01;10.40;99.90
8832;DHT22;4452;50.756;4.472;2023-04-25T11:24:32;10.20;99.90
8832;DHT22;4452;50.756;4.472;2023-04-25T11:26:58;10.00;99.90
8832;DHT22;4452;50.756;4.472;2023-04-25T11:29:28;10.20;99.90
8832;DHT22;4452;50.756;4.472;2023-04-25T11:31:54;10.30;99.90
8832;DHT22;4452;50.756;4.472;2023-04-25T11:34:23;10.30;99.90
8832;DHT22;4452;50.756;4.472;2023-04-25T11:36:50;10.20;99.90
8832;DHT22;4452;50.756;4.472;2023-04-25T11:39:18;10.10;99.90
8832;DHT22;4452;50.756;4.472;2023-04-25T11:41:44;9.90;99.90
8832;DHT22;4452;50.756;4.472;2023-04-25T11:44:10;9.80;99.90
8832;DHT22;4452;50.756;4.472;2023-04-25T11:46:36;9.60;99.90
8832;DHT22;4452;50.756;4.472;2023-04-25T11:49:02;9.80;99.90
8832;DHT22;4452;50.756;4.472;2023-04-25T11:51:28;9.90;99.90
8832;DHT22;4452;50.756;4.472;2023-04-25T11:53:53;10.20;99.90
8832;DHT22;4452;50.756;4.472;2023-04-25T11:56:20;10.20;99.90
8832;DHT22;4452;50.756;4.472;2023-04-25T11:59:00;10.50;99.90
8832;DHT22;4452;50.756;4.472;2023-04-25T12:01:37;10.40;99.90
8832;DHT22;4452;50.756;4.472;2023-04-25T12:04:20;10.60;99.90
8832;DHT22;4452;50.756;4.472;2023-04-25T12:06:48;10.80;99.90
8832;DHT22;4452;50.756;4.472;2023-04-25T12:09:15;10.70;99.90
8832;DHT22;4452;50.756;4.472;2023-04-25T12:11:44;10.80;99.90
8832;DHT22;4452;50.756;4.472;2023-04-25T12:14:34;11.30;99.90
8832;DHT22;4452;50.756;4.472;2023-04-25T12:17:01;10.80;99.90
8832;DHT22;4452;50.756;4.472;2023-04-25T12:19:33;10.60;99.90
8832;DHT22;4452;50.756;4.472;2023-04-25T12:22:00;11.00;99.90
8832;DHT22;4452;50.756;4.472;2023-04-25T12:24:27;11.10;99.90
8832;DHT22;4452;50.756;4.472;2023-04-25T12:27:04;11.50;99.90
8832;DHT22;4452;50.756;4.472;2023-04-25T12:29:32;11.80;99.90
8832;DHT22;4452;50.756;4.472;2023-04-25T12:31:58;11.60;99.90
8832;DHT22;4452;50.756;4.472;2023-04-25T12:34:25;11.90;99.90
8832;DHT22;4452;50.756;4.472;2023-04-25T12:36:52;12.00;99.90
8832;DHT22;4452;50.756;4.472;2023-04-25T12:39:19;11.90;99.90
8832;DHT22;4452;50.756;4.472;2023-04-25T12:41:46;12.10;99.90
8832;DHT22;4452;50.756;4.472;2023-04-25T12:44:12;12.60;99.90
8832;DHT22;4452;50.756;4.472;2023-04-25T12:46:38;12.00;99.90
8832;DHT22;4452;50.756;4.472;2023-04-25T12:49:04;11.80;99.90
8832;DHT22;4452;50.756;4.472;2023-04-25T12:51:31;11.60;99.90
8832;DHT22;4452;50.756;4.472;2023-04-25T12:53:58;11.80;99.90
8832;DHT22;4452;50.756;4.472;2023-04-25T12:56:26;11.20;99.90
8832;DHT22;4452;50.756;4.472;2023-04-25T12:58:52;10.80;99.90
8832;DHT22;4452;50.756;4.472;2023-04-25T13:01:17;10.50;99.90
8832;DHT22;4452;50.756;4.472;2023-04-25T13:03:43;10.40;99.90
8832;DHT22;4452;50.756;4.472;2023-04-25T13:06:09;10.20;99.90
8832;DHT22;4452;50.756;4.472;2023-04-25T13:08:34;10.20;99.90
8832;DHT22;4452;50.756;4.472;2023-04-25T13:11:02;10.20;99.90
8832;DHT22;4452;50.756;4.472;2023-04-25T13:13:29;10.30;99.90
8832;DHT22;4452;50.756;4.472;2023-04-25T13:15:55;10.50;99.90
8832;DHT22;4452;50.756;4.472;2023-04-25T13:18:20;10.60;99.90
8832;DHT22;4452;50.756;4.472;2023-04-25T13:20:46;11.00;99.90
8832;DHT22;4452;50.756;4.472;2023-04-25T13:23:12;11.60;99.90
8832;DHT22;4452;50.756;4.472;2023-04-25T13:25:38;12.90;99.90
8832;DHT22;4452;50.756;4.472;2023-04-25T13:28:03;12.80;99.90
8832;DHT22;4452;50.756;4.472;2023-04-25T13:30:30;11.90;99.90
8832;DHT22;4452;50.756;4.472;2023-04-25T13:32:55;11.10;99.90
8832;DHT22;4452;50.756;4.472;2023-04-25T13:35:22;11.00;99.90
8832;DHT22;4452;50.756;4.472;2023-04-25T13:37:48;10.70;99.90
8832;DHT22;4452;50.756;4.472;2023-04-25T13:40:14;10.40;99.90
8832;DHT22;4452;50.756;4.472;2023-04-25T13:42:39;10.30;99.90
8832;DHT22;4452;50.756;4.472;2023-04-25T13:45:06;10.50;99.90
8832;DHT22;4452;50.756;4.472;2023-04-25T13:47:32;10.70;99.90
8832;DHT22;4452;50.756;4.472;2023-04-25T13:49:58;10.80;99.90
8832;DHT22;4452;50.756;4.472;2023-04-25T13:52:24;10.90;99.90
8832;DHT22;4452;50.756;4.472;2023-04-25T13:54:51;10.80;99.90
8832;DHT22;4452;50.756;4.472;2023-04-25T13:57:17;11.90;99.90
8832;DHT22;4452;50.756;4.472;2023-04-25T13:59:43;13.20;99.90
8832;DHT22;4452;50.756;4.472;2023-04-25T14:02:09;13.70;99.90
8832;DHT22;4452;50.756;4.472;2023-04-25T14:04:34;14.30;99.90
8832;DHT22;4452;50.756;4.472;2023-04-25T14:07:00;13.30;99.90
8832;DHT22;4452;50.756;4.472;2023-04-25T14:09:27;13.30;99.90
8832;DHT22;4452;50.756;4.472;2023-04-25T14:11:53;13.40;99.90
8832;DHT22;4452;50.756;4.472;2023-04-25T14:14:20;13.20;99.90
8832;DHT22;4452;50.756;4.472;2023-04-25T14:16:46;12.50;99.90
8832;DHT22;4452;50.756;4.472;2023-04-25T14:19:22;11.90;99.90
8832;DHT22;4452;50.756;4.472;2023-04-25T14:21:49;11.70;99.90
8832;DHT22;4452;50.756;4.472;2023-04-25T14:24:14;11.40;99.90
8832;DHT22;4452;50.756;4.472;2023-04-25T14:26:41;11.50;99.90
8832;DHT22;4452;50.756;4.472;2023-04-25T14:29:08;11.30;99.90
8832;DHT22;4452;50.756;4.472;2023-04-25T14:31:37;11.30;99.90
8832;DHT22;4452;50.756;4.472;2023-04-25T14:34:03;10.80;99.90
8832;DHT22;4452;50.756;4.472;2023-04-25T14:36:28;10.80;99.90
8832;DHT22;4452;50.756;4.472;2023-04-25T14:38:54;10.80;99.90
8832;DHT22;4452;50.756;4.472;2023-04-25T14:41:20;10.70;99.90
8832;DHT22;4452;50.756;4.472;2023-04-25T14:43:46;11.30;99.90
8832;DHT22;4452;50.756;4.472;2023-04-25T14:46:12;12.50;99.90
8832;DHT22;4452;50.756;4.472;2023-04-25T14:48:38;13.30;99.90
8832;DHT22;4452;50.756;4.472;2023-04-25T14:51:04;13.30;99.90
8832;DHT22;4452;50.756;4.472;2023-04-25T14:53:30;14.10;99.90
8832;DHT22;4452;50.756;4.472;2023-04-25T14:55:57;14.40;99.90
8832;DHT22;4452;50.756;4.472;2023-04-25T14:58:22;14.60;99.90
8832;DHT22;4452;50.756;4.472;2023-04-25T15:00:48;14.50;99.90
8832;DHT22;4452;50.756;4.472;2023-04-25T15:03:14;13.80;99.90
8832;DHT22;4452;50.756;4.472;2023-04-25T15:05:41;14.60;99.90
8832;DHT22;4452;50.756;4.472;2023-04-25T15:08:07;15.40;99.90
8832;DHT22;4452;50.756;4.472;2023-04-25T15:10:33;16.00;99.90
8832;DHT22;4452;50.756;4.472;2023-04-25T15:12:59;16.20;99.90
8832;DHT22;4452;50.756;4.472;2023-04-25T15:15:25;15.80;99.90
8832;DHT22;4452;50.756;4.472;2023-04-25T15:17:52;15.30;99.90
8832;DHT22;4452;50.756;4.472;2023-04-25T15:20:19;14.70;99.90
8832;DHT22;4452;50.756;4.472;2023-04-25T15:22:44;13.40;99.90
8832;DHT22;4452;50.756;4.472;2023-04-25T15:25:11;12.50;99.90
8832;DHT22;4452;50.756;4.472;2023-04-25T15:27:38;12.20;99.90
8832;DHT22;4452;50.756;4.472;2023-04-25T15:30:10;12.20;99.90
8832;DHT22;4452;50.756;4.472;2023-04-25T15:32:38;11.70;99.90
8832;DHT22;4452;50.756;4.472;2023-04-25T15:35:05;11.30;99.90
8832;DHT22;4452;50.756;4.472;2023-04-25T15:37:32;11.80;99.90
8832;DHT22;4452;50.756;4.472;2023-04-25T15:40:08;13.30;99.90
8832;DHT22;4452;50.756;4.472;2023-04-25T15:42:35;14.30;99.90
8832;DHT22;4452;50.756;4.472;2023-04-25T15:45:03;14.70;99.90
8832;DHT22;4452;50.756;4.472;2023-04-25T15:47:29;16.00;99.90
8832;DHT22;4452;50.756;4.472;2023-04-25T15:49:55;14.60;99.90
8832;DHT22;4452;50.756;4.472;2023-04-25T15:52:21;14.30;99.90
8832;DHT22;4452;50.756;4.472;2023-04-25T15:54:47;14.30;99.90
8832;DHT22;4452;50.756;4.472;2023-04-25T15:57:16;13.90;99.90
8832;DHT22;4452;50.756;4.472;2023-04-25T15:59:43;12.80;99.90
8832;DHT22;4452;50.756;4.472;2023-04-25T16:02:11;12.20;99.90
8832;DHT22;4452;50.756;4.472;2023-04-25T16:04:37;12.40;99.90
8832;DHT22;4452;50.756;4.472;2023-04-25T16:07:03;13.20;99.90
8832;DHT22;4452;50.756;4.472;2023-04-25T16:09:30;14.00;99.90
8832;DHT22;4452;50.756;4.472;2023-04-25T16:11:56;14.10;99.90
8832;DHT22;4452;50.756;4.472;2023-04-25T16:14:22;14.10;99.90
8832;DHT22;4452;50.756;4.472;2023-04-25T16:16:48;13.80;99.90
8832;DHT22;4452;50.756;4.472;2023-04-25T16:19:14;13.90;99.90
8832;DHT22;4452;50.756;4.472;2023-04-25T16:21:40;13.90;99.90